Pike Station, Illinois
Current Conditions -  °F | °C
As of 11:35 AM on Thursday 30 Oct 2014 (Local Time) from KPPQ Reporting Station
Light Rain Light Rain  
Wind Chill: 51°   Ceiling: 6500
Heat Index: 51°   Visibility: 10mi
Dew Point: 40°   Wind: 10mph
Humidity: 64%   Direction: 190°S
Pressure: 30.11"   Gusts: NA
Location:  39.5365°N, 91.0118°W
Report Text: KPPQ 301635Z AUTO 19009KT 10SM -RA SCT038 BKN065 OVC075 11/04 A3011 RMK AO2 T01070042
Loading
Personal Weather Stations






























Interactive Weather Map
Tropical Storm Tracking
New forecast layout! Learn more

10-Day Weather Forecast

Advertisements
Track Severe Weather on mobile